sensor_id;sensor_type;location;lat;lon;timestamp;temperature;humidity
3548;DHT22;1788;49.400;11.092;2023-08-24T00:01:14;22.10;57.00
3548;DHT22;1788;49.400;11.092;2023-08-24T00:03:40;22.10;57.10
3548;DHT22;1788;49.400;11.092;2023-08-24T00:06:07;22.10;57.20
3548;DHT22;1788;49.400;11.092;2023-08-24T00:08:34;22.00;57.30
3548;DHT22;1788;49.400;11.092;2023-08-24T00:11:01;22.00;57.30
3548;DHT22;1788;49.400;11.092;2023-08-24T00:13:28;21.90;57.40
3548;DHT22;1788;49.400;11.092;2023-08-24T00:15:55;22.00;57.40
3548;DHT22;1788;49.400;11.092;2023-08-24T00:18:22;21.90;57.40
3548;DHT22;1788;49.400;11.092;2023-08-24T00:20:49;21.90;57.40
3548;DHT22;1788;49.400;11.092;2023-08-24T00:23:16;21.90;58.00
3548;DHT22;1788;49.400;11.092;2023-08-24T00:25:42;21.80;57.60
3548;DHT22;1788;49.400;11.092;2023-08-24T00:28:09;21.80;57.60
3548;DHT22;1788;49.400;11.092;2023-08-24T00:30:36;21.70;58.10
3548;DHT22;1788;49.400;11.092;2023-08-24T00:33:03;21.70;57.60
3548;DHT22;1788;49.400;11.092;2023-08-24T00:35:30;21.60;57.40
3548;DHT22;1788;49.400;11.092;2023-08-24T00:37:57;21.60;57.60
3548;DHT22;1788;49.400;11.092;2023-08-24T00:40:23;21.50;57.70
3548;DHT22;1788;49.400;11.092;2023-08-24T00:42:50;21.50;57.80
3548;DHT22;1788;49.400;11.092;2023-08-24T00:45:17;21.40;57.80
3548;DHT22;1788;49.400;11.092;2023-08-24T00:47:45;21.40;58.10
3548;DHT22;1788;49.400;11.092;2023-08-24T00:50:11;21.40;58.10
3548;DHT22;1788;49.400;11.092;2023-08-24T00:52:38;21.30;58.20
3548;DHT22;1788;49.400;11.092;2023-08-24T00:55:05;21.30;58.10
3548;DHT22;1788;49.400;11.092;2023-08-24T00:57:32;21.30;58.30
3548;DHT22;1788;49.400;11.092;2023-08-24T00:59:59;21.30;58.30
3548;DHT22;1788;49.400;11.092;2023-08-24T01:02:26;21.20;58.30
3548;DHT22;1788;49.400;11.092;2023-08-24T01:04:53;21.20;58.30
3548;DHT22;1788;49.400;11.092;2023-08-24T01:07:19;21.20;58.40
3548;DHT22;1788;49.400;11.092;2023-08-24T01:09:46;21.20;58.40
3548;DHT22;1788;49.400;11.092;2023-08-24T01:14:41;21.20;58.70
3548;DHT22;1788;49.400;11.092;2023-08-24T01:17:07;21.20;59.20
3548;DHT22;1788;49.400;11.092;2023-08-24T01:19:36;21.10;58.70
3548;DHT22;1788;49.400;11.092;2023-08-24T01:22:01;21.10;58.60
3548;DHT22;1788;49.400;11.092;2023-08-24T01:26:54;21.10;58.70
3548;DHT22;1788;49.400;11.092;2023-08-24T01:29:20;21.00;58.70
3548;DHT22;1788;49.400;11.092;2023-08-24T01:31:48;21.00;58.70
3548;DHT22;1788;49.400;11.092;2023-08-24T01:34:14;21.00;58.90
3548;DHT22;1788;49.400;11.092;2023-08-24T01:36:41;21.00;58.90
3548;DHT22;1788;49.400;11.092;2023-08-24T01:41:36;21.00;59.00
3548;DHT22;1788;49.400;11.092;2023-08-24T01:44:02;20.90;59.00
3548;DHT22;1788;49.400;11.092;2023-08-24T01:46:29;20.90;59.00
3548;DHT22;1788;49.400;11.092;2023-08-24T01:48:55;20.90;59.00
3548;DHT22;1788;49.400;11.092;2023-08-24T01:51:22;20.90;59.00
3548;DHT22;1788;49.400;11.092;2023-08-24T01:53:49;20.90;59.10
3548;DHT22;1788;49.400;11.092;2023-08-24T01:56:15;20.90;59.10
3548;DHT22;1788;49.400;11.092;2023-08-24T01:58:42;20.90;59.10
3548;DHT22;1788;49.400;11.092;2023-08-24T02:01:09;20.90;59.20
3548;DHT22;1788;49.400;11.092;2023-08-24T02:03:35;20.80;59.10
3548;DHT22;1788;49.400;11.092;2023-08-24T02:06:03;20.80;59.20
3548;DHT22;1788;49.400;11.092;2023-08-24T02:08:29;20.80;59.20
3548;DHT22;1788;49.400;11.092;2023-08-24T02:10:57;20.80;59.30
3548;DHT22;1788;49.400;11.092;2023-08-24T02:13:23;20.80;59.30
3548;DHT22;1788;49.400;11.092;2023-08-24T02:15:51;20.80;59.40
3548;DHT22;1788;49.400;11.092;2023-08-24T02:18:17;20.70;59.30
3548;DHT22;1788;49.400;11.092;2023-08-24T02:20:45;20.70;59.40
3548;DHT22;1788;49.400;11.092;2023-08-24T02:23:11;20.70;59.40
3548;DHT22;1788;49.400;11.092;2023-08-24T02:25:41;20.70;59.40
3548;DHT22;1788;49.400;11.092;2023-08-24T02:28:04;20.70;59.50
3548;DHT22;1788;49.400;11.092;2023-08-24T02:30:33;20.60;59.50
3548;DHT22;1788;49.400;11.092;2023-08-24T02:32:59;20.60;59.50
3548;DHT22;1788;49.400;11.092;2023-08-24T02:35:27;20.60;59.60
3548;DHT22;1788;49.400;11.092;2023-08-24T02:37:53;20.60;59.60
3548;DHT22;1788;49.400;11.092;2023-08-24T02:40:21;20.60;59.60
3548;DHT22;1788;49.400;11.092;2023-08-24T02:42:48;20.50;59.60
3548;DHT22;1788;49.400;11.092;2023-08-24T02:45:15;20.50;59.60
3548;DHT22;1788;49.400;11.092;2023-08-24T02:47:43;20.40;60.30
3548;DHT22;1788;49.400;11.092;2023-08-24T02:50:09;20.40;59.60
3548;DHT22;1788;49.400;11.092;2023-08-24T02:52:36;20.40;59.70
3548;DHT22;1788;49.400;11.092;2023-08-24T02:55:03;20.40;59.80
3548;DHT22;1788;49.400;11.092;2023-08-24T02:57:29;20.40;59.80
3548;DHT22;1788;49.400;11.092;2023-08-24T02:59:57;20.30;59.90
3548;DHT22;1788;49.400;11.092;2023-08-24T03:02:23;20.30;59.90
3548;DHT22;1788;49.400;11.092;2023-08-24T03:04:50;20.30;59.90
3548;DHT22;1788;49.400;11.092;2023-08-24T03:07:17;20.30;59.90
3548;DHT22;1788;49.400;11.092;2023-08-24T03:09:43;20.30;60.00
3548;DHT22;1788;49.400;11.092;2023-08-24T03:12:10;20.30;60.00
3548;DHT22;1788;49.400;11.092;2023-08-24T03:14:37;20.30;60.00
3548;DHT22;1788;49.400;11.092;2023-08-24T03:17:03;20.30;60.00
3548;DHT22;1788;49.400;11.092;2023-08-24T03:19:30;20.30;60.00
3548;DHT22;1788;49.400;11.092;2023-08-24T03:21:57;20.30;60.10
3548;DHT22;1788;49.400;11.092;2023-08-24T03:24:24;20.20;60.00
3548;DHT22;1788;49.400;11.092;2023-08-24T03:26:51;20.20;60.10
3548;DHT22;1788;49.400;11.092;2023-08-24T03:29:17;20.20;60.00
3548;DHT22;1788;49.400;11.092;2023-08-24T03:31:45;20.20;60.20
3548;DHT22;1788;49.400;11.092;2023-08-24T03:34:11;20.20;60.20
3548;DHT22;1788;49.400;11.092;2023-08-24T03:36:39;20.20;60.30
3548;DHT22;1788;49.400;11.092;2023-08-24T03:39:07;20.20;60.30
3548;DHT22;1788;49.400;11.092;2023-08-24T03:41:34;20.20;60.30
3548;DHT22;1788;49.400;11.092;2023-08-24T03:44:01;20.20;60.40
3548;DHT22;1788;49.400;11.092;2023-08-24T03:46:28;20.10;60.30
3548;DHT22;1788;49.400;11.092;2023-08-24T03:48:55;20.10;60.40
3548;DHT22;1788;49.400;11.092;2023-08-24T03:51:22;20.10;60.40
3548;DHT22;1788;49.400;11.092;2023-08-24T03:53:49;20.10;61.40
3548;DHT22;1788;49.400;11.092;2023-08-24T03:56:16;20.10;60.40
3548;DHT22;1788;49.400;11.092;2023-08-24T03:58:42;20.10;60.50
3548;DHT22;1788;49.400;11.092;2023-08-24T04:03:35;20.00;60.50
3548;DHT22;1788;49.400;11.092;2023-08-24T04:06:02;20.00;60.60
3548;DHT22;1788;49.400;11.092;2023-08-24T04:08:29;20.00;61.40
3548;DHT22;1788;49.400;11.092;2023-08-24T04:10:56;20.00;60.80
3548;DHT22;1788;49.400;11.092;2023-08-24T04:13:23;19.90;60.80
3548;DHT22;1788;49.400;11.092;2023-08-24T04:15:50;19.90;60.80
3548;DHT22;1788;49.400;11.092;2023-08-24T04:18:17;19.90;61.80
3548;DHT22;1788;49.400;11.092;2023-08-24T04:20:45;19.90;61.00
3548;DHT22;1788;49.400;11.092;2023-08-24T04:23:13;19.90;61.10
3548;DHT22;1788;49.400;11.092;2023-08-24T04:25:39;19.90;61.20
3548;DHT22;1788;49.400;11.092;2023-08-24T04:28:05;19.90;61.20
3548;DHT22;1788;49.400;11.092;2023-08-24T04:30:32;19.90;61.40
3548;DHT22;1788;49.400;11.092;2023-08-24T04:32:59;19.90;61.40
3548;DHT22;1788;49.400;11.092;2023-08-24T04:35:26;19.90;61.30
3548;DHT22;1788;49.400;11.092;2023-08-24T04:37:53;19.90;61.40
3548;DHT22;1788;49.400;11.092;2023-08-24T04:40:19;19.90;61.30
3548;DHT22;1788;49.400;11.092;2023-08-24T04:42:47;19.90;61.30
3548;DHT22;1788;49.400;11.092;2023-08-24T04:45:14;19.90;61.40
3548;DHT22;1788;49.400;11.092;2023-08-24T04:47:40;19.90;61.40
3548;DHT22;1788;49.400;11.092;2023-08-24T04:50:08;19.90;61.40
3548;DHT22;1788;49.400;11.092;2023-08-24T04:52:34;19.90;61.40
3548;DHT22;1788;49.400;11.092;2023-08-24T04:55:02;19.90;61.40
3548;DHT22;1788;49.400;11.092;2023-08-24T04:57:28;19.90;61.40
3548;DHT22;1788;49.400;11.092;2023-08-24T04:59:56;19.90;62.20
3548;DHT22;1788;49.400;11.092;2023-08-24T05:02:22;19.90;61.40
3548;DHT22;1788;49.400;11.092;2023-08-24T05:04:50;19.90;61.60
3548;DHT22;1788;49.400;11.092;2023-08-24T05:07:16;19.90;61.60
3548;DHT22;1788;49.400;11.092;2023-08-24T05:09:45;19.90;61.60
3548;DHT22;1788;49.400;11.092;2023-08-24T05:12:11;19.90;61.60
3548;DHT22;1788;49.400;11.092;2023-08-24T05:14:38;19.90;61.60
3548;DHT22;1788;49.400;11.092;2023-08-24T05:17:05;20.00;61.80
3548;DHT22;1788;49.400;11.092;2023-08-24T05:19:32;20.00;61.80
3548;DHT22;1788;49.400;11.092;2023-08-24T05:21:59;20.00;61.90
3548;DHT22;1788;49.400;11.092;2023-08-24T05:24:26;20.00;61.90
3548;DHT22;1788;49.400;11.092;2023-08-24T05:26:53;20.10;62.80
3548;DHT22;1788;49.400;11.092;2023-08-24T05:29:20;20.00;62.00
3548;DHT22;1788;49.400;11.092;2023-08-24T05:31:46;20.10;62.20
3548;DHT22;1788;49.400;11.092;2023-08-24T05:34:13;20.10;62.90
3548;DHT22;1788;49.400;11.092;2023-08-24T05:36:40;20.20;62.40
3548;DHT22;1788;49.400;11.092;2023-08-24T05:39:06;20.30;62.60
3548;DHT22;1788;49.400;11.092;2023-08-24T05:41:33;20.30;62.50
3548;DHT22;1788;49.400;11.092;2023-08-24T05:44:00;20.40;62.50
3548;DHT22;1788;49.400;11.092;2023-08-24T05:46:26;20.50;62.60
3548;DHT22;1788;49.400;11.092;2023-08-24T05:48:54;20.70;62.70
3548;DHT22;1788;49.400;11.092;2023-08-24T05:51:20;20.70;62.70
3548;DHT22;1788;49.400;11.092;2023-08-24T05:53:48;20.80;62.50
3548;DHT22;1788;49.400;11.092;2023-08-24T05:56:15;20.80;62.50
3548;DHT22;1788;49.400;11.092;2023-08-24T05:58:42;20.80;62.40
3548;DHT22;1788;49.400;11.092;2023-08-24T06:01:08;20.90;62.40
3548;DHT22;1788;49.400;11.092;2023-08-24T06:03:36;20.90;62.40
3548;DHT22;1788;49.400;11.092;2023-08-24T06:06:03;20.90;62.30
3548;DHT22;1788;49.400;11.092;2023-08-24T06:08:30;21.00;62.40
3548;DHT22;1788;49.400;11.092;2023-08-24T06:10:57;21.20;62.50
3548;DHT22;1788;49.400;11.092;2023-08-24T06:13:24;21.20;62.50
3548;DHT22;1788;49.400;11.092;2023-08-24T06:15:51;21.40;62.40
3548;DHT22;1788;49.400;11.092;2023-08-24T06:18:18;21.40;62.40
3548;DHT22;1788;49.400;11.092;2023-08-24T06:20:44;21.50;62.20
3548;DHT22;1788;49.400;11.092;2023-08-24T06:23:11;21.50;62.20
3548;DHT22;1788;49.400;11.092;2023-08-24T06:25:37;21.50;62.20
3548;DHT22;1788;49.400;11.092;2023-08-24T06:28:04;21.50;62.20
3548;DHT22;1788;49.400;11.092;2023-08-24T06:30:31;21.50;62.40
3548;DHT22;1788;49.400;11.092;2023-08-24T06:32:57;21.50;62.40
3548;DHT22;1788;49.400;11.092;2023-08-24T06:35:24;21.60;62.70
3548;DHT22;1788;49.400;11.092;2023-08-24T06:37:50;21.60;62.70
3548;DHT22;1788;49.400;11.092;2023-08-24T06:40:18;21.80;62.90
3548;DHT22;1788;49.400;11.092;2023-08-24T06:42:44;21.70;62.80
3548;DHT22;1788;49.400;11.092;2023-08-24T06:45:11;21.80;62.80
3548;DHT22;1788;49.400;11.092;2023-08-24T06:47:38;21.90;62.90
3548;DHT22;1788;49.400;11.092;2023-08-24T06:50:04;22.00;62.90
3548;DHT22;1788;49.400;11.092;2023-08-24T06:52:31;22.10;62.80
3548;DHT22;1788;49.400;11.092;2023-08-24T06:54:59;22.30;62.70
3548;DHT22;1788;49.400;11.092;2023-08-24T06:57:25;22.30;62.70
3548;DHT22;1788;49.400;11.092;2023-08-24T06:59:52;22.40;62.50
3548;DHT22;1788;49.400;11.092;2023-08-24T07:02:19;22.30;62.20
3548;DHT22;1788;49.400;11.092;2023-08-24T07:04:46;22.30;62.20
3548;DHT22;1788;49.400;11.092;2023-08-24T07:07:13;22.30;62.30
3548;DHT22;1788;49.400;11.092;2023-08-24T07:09:41;22.30;62.30
3548;DHT22;1788;49.400;11.092;2023-08-24T07:12:08;22.30;62.20
3548;DHT22;1788;49.400;11.092;2023-08-24T07:14:34;22.30;62.10
3548;DHT22;1788;49.400;11.092;2023-08-24T07:17:01;22.20;62.00
3548;DHT22;1788;49.400;11.092;2023-08-24T07:19:28;22.20;62.00
3548;DHT22;1788;49.400;11.092;2023-08-24T07:21:55;22.20;62.10
3548;DHT22;1788;49.400;11.092;2023-08-24T07:24:21;22.10;62.10
3548;DHT22;1788;49.400;11.092;2023-08-24T07:26:48;22.10;62.20
3548;DHT22;1788;49.400;11.092;2023-08-24T07:29:15;22.30;62.60
3548;DHT22;1788;49.400;11.092;2023-08-24T07:31:42;22.30;62.60
3548;DHT22;1788;49.400;11.092;2023-08-24T07:34:09;22.50;62.40
3548;DHT22;1788;49.400;11.092;2023-08-24T07:36:36;22.50;62.40
3548;DHT22;1788;49.400;11.092;2023-08-24T07:39:04;22.90;62.30
3548;DHT22;1788;49.400;11.092;2023-08-24T07:41:30;22.90;62.30
3548;DHT22;1788;49.400;11.092;2023-08-24T07:43:57;23.20;61.70
3548;DHT22;1788;49.400;11.092;2023-08-24T07:46:24;23.20;61.60
3548;DHT22;1788;49.400;11.092;2023-08-24T07:48:51;23.60;61.50
3548;DHT22;1788;49.400;11.092;2023-08-24T07:51:18;23.60;61.50
3548;DHT22;1788;49.400;11.092;2023-08-24T07:53:45;23.80;61.20
3548;DHT22;1788;49.400;11.092;2023-08-24T07:56:11;23.90;60.90
3548;DHT22;1788;49.400;11.092;2023-08-24T07:58:38;24.00;60.50
3548;DHT22;1788;49.400;11.092;2023-08-24T08:01:05;24.10;60.30
3548;DHT22;1788;49.400;11.092;2023-08-24T08:03:31;24.20;60.20
3548;DHT22;1788;49.400;11.092;2023-08-24T08:05:59;24.40;60.10
3548;DHT22;1788;49.400;11.092;2023-08-24T08:08:26;24.40;60.10
3548;DHT22;1788;49.400;11.092;2023-08-24T08:13:19;24.70;59.70
3548;DHT22;1788;49.400;11.092;2023-08-24T08:15:46;24.90;59.50
3548;DHT22;1788;49.400;11.092;2023-08-24T08:18:13;25.20;59.00
3548;DHT22;1788;49.400;11.092;2023-08-24T08:20:40;25.20;59.10
3548;DHT22;1788;49.400;11.092;2023-08-24T08:23:08;25.50;58.60
3548;DHT22;1788;49.400;11.092;2023-08-24T08:25:34;25.50;58.60
3548;DHT22;1788;49.400;11.092;2023-08-24T08:28:02;25.80;58.30
3548;DHT22;1788;49.400;11.092;2023-08-24T08:30:28;25.80;58.30
3548;DHT22;1788;49.400;11.092;2023-08-24T08:32:56;26.20;57.80
3548;DHT22;1788;49.400;11.092;2023-08-24T08:35:22;26.20;57.80
3548;DHT22;1788;49.400;11.092;2023-08-24T08:37:50;26.40;57.10
3548;DHT22;1788;49.400;11.092;2023-08-24T08:40:16;26.40;57.10
3548;DHT22;1788;49.400;11.092;2023-08-24T08:42:44;26.80;56.70
3548;DHT22;1788;49.400;11.092;2023-08-24T08:45:11;26.70;56.60
3548;DHT22;1788;49.400;11.092;2023-08-24T08:47:38;27.20;56.10
3548;DHT22;1788;49.400;11.092;2023-08-24T08:50:05;27.10;56.00
3548;DHT22;1788;49.400;11.092;2023-08-24T08:52:32;27.50;55.30
3548;DHT22;1788;49.400;11.092;2023-08-24T08:54:59;27.50;55.30
3548;DHT22;1788;49.400;11.092;2023-08-24T08:57:25;27.70;54.90
3548;DHT22;1788;49.400;11.092;2023-08-24T08:59:52;27.80;54.60
3548;DHT22;1788;49.400;11.092;2023-08-24T09:02:19;27.90;54.40
3548;DHT22;1788;49.400;11.092;2023-08-24T09:04:46;28.10;54.10
3548;DHT22;1788;49.400;11.092;2023-08-24T09:07:13;28.20;53.80
3548;DHT22;1788;49.400;11.092;2023-08-24T09:09:39;28.30;53.30
3548;DHT22;1788;49.400;11.092;2023-08-24T09:12:06;28.60;52.80
3548;DHT22;1788;49.400;11.092;2023-08-24T09:14:33;28.50;52.70
3548;DHT22;1788;49.400;11.092;2023-08-24T09:17:00;28.80;52.20
3548;DHT22;1788;49.400;11.092;2023-08-24T09:21:56;29.10;52.00
3548;DHT22;1788;49.400;11.092;2023-08-24T09:24:21;29.10;51.70
3548;DHT22;1788;49.400;11.092;2023-08-24T09:26:47;29.30;51.20
3548;DHT22;1788;49.400;11.092;2023-08-24T09:29:14;29.40;50.90
3548;DHT22;1788;49.400;11.092;2023-08-24T09:31:41;29.40;50.50
3548;DHT22;1788;49.400;11.092;2023-08-24T09:34:08;29.30;50.50
3548;DHT22;1788;49.400;11.092;2023-08-24T09:36:35;29.30;50.50
3548;DHT22;1788;49.400;11.092;2023-08-24T09:39:02;29.30;51.00
3548;DHT22;1788;49.400;11.092;2023-08-24T09:44:01;29.30;50.40
3548;DHT22;1788;49.400;11.092;2023-08-24T09:46:23;29.20;50.20
3548;DHT22;1788;49.400;11.092;2023-08-24T09:48:52;29.20;50.20
3548;DHT22;1788;49.400;11.092;2023-08-24T09:51:16;29.20;50.40
3548;DHT22;1788;49.400;11.092;2023-08-24T09:53:42;29.20;50.40
3548;DHT22;1788;49.400;11.092;2023-08-24T09:56:09;29.30;50.20
3548;DHT22;1788;49.400;11.092;2023-08-24T09:58:36;29.50;50.10
3548;DHT22;1788;49.400;11.092;2023-08-24T10:01:02;29.60;50.40
3548;DHT22;1788;49.400;11.092;2023-08-24T10:03:30;29.80;49.50
3548;DHT22;1788;49.400;11.092;2023-08-24T10:05:57;29.80;49.40
3548;DHT22;1788;49.400;11.092;2023-08-24T10:10:52;30.00;49.10
3548;DHT22;1788;49.400;11.092;2023-08-24T10:15:44;30.30;48.30
3548;DHT22;1788;49.400;11.092;2023-08-24T10:18:10;30.40;48.00
3548;DHT22;1788;49.400;11.092;2023-08-24T10:20:37;30.60;48.10
3548;DHT22;1788;49.400;11.092;2023-08-24T10:23:04;30.70;48.00
3548;DHT22;1788;49.400;11.092;2023-08-24T10:25:30;30.80;48.00
3548;DHT22;1788;49.400;11.092;2023-08-24T10:27:58;31.10;48.30
3548;DHT22;1788;49.400;11.092;2023-08-24T10:30:24;31.00;47.70
3548;DHT22;1788;49.400;11.092;2023-08-24T10:32:52;31.30;47.40
3548;DHT22;1788;49.400;11.092;2023-08-24T10:35:19;31.20;47.30
3548;DHT22;1788;49.400;11.092;2023-08-24T10:37:45;31.40;47.10
3548;DHT22;1788;49.400;11.092;2023-08-24T10:40:11;31.40;46.90
3548;DHT22;1788;49.400;11.092;2023-08-24T10:45:06;31.80;46.20
3548;DHT22;1788;49.400;11.092;2023-08-24T10:47:32;31.70;46.10
3548;DHT22;1788;49.400;11.092;2023-08-24T10:49:59;32.00;45.70
3548;DHT22;1788;49.400;11.092;2023-08-24T10:54:54;32.10;45.10
3548;DHT22;1788;49.400;11.092;2023-08-24T11:04:40;32.30;44.70
3548;DHT22;1788;49.400;11.092;2023-08-24T11:07:07;32.40;44.00
3548;DHT22;1788;49.400;11.092;2023-08-24T11:12:02;32.50;43.70
3548;DHT22;1788;49.400;11.092;2023-08-24T11:14:29;32.80;44.10
3548;DHT22;1788;49.400;11.092;2023-08-24T11:19:22;32.90;43.30
3548;DHT22;1788;49.400;11.092;2023-08-24T11:21:50;33.00;42.80
3548;DHT22;1788;49.400;11.092;2023-08-24T11:24:16;33.00;42.80
3548;DHT22;1788;49.400;11.092;2023-08-24T11:26:44;33.10;42.00
3548;DHT22;1788;49.400;11.092;2023-08-24T11:29:10;33.10;42.00
3548;DHT22;1788;49.400;11.092;2023-08-24T11:31:37;33.20;41.80
3548;DHT22;1788;49.400;11.092;2023-08-24T11:34:05;33.20;41.80
3548;DHT22;1788;49.400;11.092;2023-08-24T11:36:32;33.30;41.70
3548;DHT22;1788;49.400;11.092;2023-08-24T11:38:59;33.30;41.50
3548;DHT22;1788;49.400;11.092;2023-08-24T11:41:25;33.40;41.40
3548;DHT22;1788;49.400;11.092;2023-08-24T11:46:19;33.60;41.00
3548;DHT22;1788;49.400;11.092;2023-08-24T11:48:45;33.60;40.90
3548;DHT22;1788;49.400;11.092;2023-08-24T11:51:12;33.60;40.50
3548;DHT22;1788;49.400;11.092;2023-08-24T11:53:39;33.60;40.50
3548;DHT22;1788;49.400;11.092;2023-08-24T11:56:07;33.70;40.40
3548;DHT22;1788;49.400;11.092;2023-08-24T11:58:32;33.70;40.10
3548;DHT22;1788;49.400;11.092;2023-08-24T12:00:59;33.70;40.00
3548;DHT22;1788;49.400;11.092;2023-08-24T12:03:26;33.80;40.00
3548;DHT22;1788;49.400;11.092;2023-08-24T12:05:53;33.80;39.80
3548;DHT22;1788;49.400;11.092;2023-08-24T12:08:19;33.80;39.60
3548;DHT22;1788;49.400;11.092;2023-08-24T12:10:47;33.80;39.50
3548;DHT22;1788;49.400;11.092;2023-08-24T12:13:13;33.80;39.40
3548;DHT22;1788;49.400;11.092;2023-08-24T12:15:40;33.90;39.40
3548;DHT22;1788;49.400;11.092;2023-08-24T12:18:07;33.90;39.30
3548;DHT22;1788;49.400;11.092;2023-08-24T12:20:33;33.90;39.40
3548;DHT22;1788;49.400;11.092;2023-08-24T12:23:00;33.90;39.30
3548;DHT22;1788;49.400;11.092;2023-08-24T12:25:27;34.00;39.20
3548;DHT22;1788;49.400;11.092;2023-08-24T12:30:20;34.00;39.00
3548;DHT22;1788;49.400;11.092;2023-08-24T12:32:49;34.10;39.00
3548;DHT22;1788;49.400;11.092;2023-08-24T12:35:14;34.20;38.90
3548;DHT22;1788;49.400;11.092;2023-08-24T12:37:40;34.30;38.70
3548;DHT22;1788;49.400;11.092;2023-08-24T12:40:07;34.70;38.60
3548;DHT22;1788;49.400;11.092;2023-08-24T12:42:34;35.00;38.20
3548;DHT22;1788;49.400;11.092;2023-08-24T12:45:00;35.40;37.70
3548;DHT22;1788;49.400;11.092;2023-08-24T12:47:27;35.60;37.10
3548;DHT22;1788;49.400;11.092;2023-08-24T12:49:53;35.70;36.60
3548;DHT22;1788;49.400;11.092;2023-08-24T12:52:21;35.80;36.40
3548;DHT22;1788;49.400;11.092;2023-08-24T12:54:47;36.10;35.90
3548;DHT22;1788;49.400;11.092;2023-08-24T12:57:13;36.50;35.40
3548;DHT22;1788;49.400;11.092;2023-08-24T12:59:40;36.90;35.10
3548;DHT22;1788;49.400;11.092;2023-08-24T13:02:07;37.20;34.50
3548;DHT22;1788;49.400;11.092;2023-08-24T13:04:33;37.40;34.00
3548;DHT22;1788;49.400;11.092;2023-08-24T13:07:00;37.50;33.70
3548;DHT22;1788;49.400;11.092;2023-08-24T13:09:26;37.80;33.50
3548;DHT22;1788;49.400;11.092;2023-08-24T13:11:53;38.00;33.30
3548;DHT22;1788;49.400;11.092;2023-08-24T13:14:20;38.00;33.10
3548;DHT22;1788;49.400;11.092;2023-08-24T13:16:46;38.10;32.70
3548;DHT22;1788;49.400;11.092;2023-08-24T13:19:13;38.20;32.50
3548;DHT22;1788;49.400;11.092;2023-08-24T13:21:40;38.20;32.10
3548;DHT22;1788;49.400;11.092;2023-08-24T13:24:06;38.30;31.70
3548;DHT22;1788;49.400;11.092;2023-08-24T13:26:33;38.40;31.50
3548;DHT22;1788;49.400;11.092;2023-08-24T13:29:00;38.50;31.40
3548;DHT22;1788;49.400;11.092;2023-08-24T13:31:26;38.50;31.20
3548;DHT22;1788;49.400;11.092;2023-08-24T13:33:53;38.40;31.30
3548;DHT22;1788;49.400;11.092;2023-08-24T13:36:19;38.50;31.30
3548;DHT22;1788;49.400;11.092;2023-08-24T13:38:46;38.60;31.70
3548;DHT22;1788;49.400;11.092;2023-08-24T13:41:13;38.60;31.10
3548;DHT22;1788;49.400;11.092;2023-08-24T13:43:39;38.60;31.00
3548;DHT22;1788;49.400;11.092;2023-08-24T13:46:06;38.30;31.00
3548;DHT22;1788;49.400;11.092;2023-08-24T13:48:33;37.80;31.40
3548;DHT22;1788;49.400;11.092;2023-08-24T13:51:01;37.80;31.30
3548;DHT22;1788;49.400;11.092;2023-08-24T13:53:28;37.40;31.70
3548;DHT22;1788;49.400;11.092;2023-08-24T13:55:54;36.90;32.10
3548;DHT22;1788;49.400;11.092;2023-08-24T13:58:21;36.50;32.50
3548;DHT22;1788;49.400;11.092;2023-08-24T14:00:47;36.20;32.90
3548;DHT22;1788;49.400;11.092;2023-08-24T14:03:14;35.90;33.40
3548;DHT22;1788;49.400;11.092;2023-08-24T14:05:41;35.70;33.70
3548;DHT22;1788;49.400;11.092;2023-08-24T14:08:07;35.50;34.00
3548;DHT22;1788;49.400;11.092;2023-08-24T14:10:34;35.30;34.20
3548;DHT22;1788;49.400;11.092;2023-08-24T14:13:01;35.30;34.40
3548;DHT22;1788;49.400;11.092;2023-08-24T14:15:27;35.30;34.40
3548;DHT22;1788;49.400;11.092;2023-08-24T14:17:55;35.40;34.30
3548;DHT22;1788;49.400;11.092;2023-08-24T14:20:21;35.30;34.20
3548;DHT22;1788;49.400;11.092;2023-08-24T14:22:48;35.40;34.40
3548;DHT22;1788;49.400;11.092;2023-08-24T14:25:15;35.40;34.50
3548;DHT22;1788;49.400;11.092;2023-08-24T14:27:41;35.40;34.50
3548;DHT22;1788;49.400;11.092;2023-08-24T14:30:08;35.30;34.80
3548;DHT22;1788;49.400;11.092;2023-08-24T14:32:34;35.20;35.00
3548;DHT22;1788;49.400;11.092;2023-08-24T14:35:01;35.10;35.10
3548;DHT22;1788;49.400;11.092;2023-08-24T14:37:28;35.10;35.20
3548;DHT22;1788;49.400;11.092;2023-08-24T14:39:54;35.30;35.30
3548;DHT22;1788;49.400;11.092;2023-08-24T14:42:21;35.50;35.10
3548;DHT22;1788;49.400;11.092;2023-08-24T14:44:48;35.60;34.80
3548;DHT22;1788;49.400;11.092;2023-08-24T14:47:14;35.70;34.70
3548;DHT22;1788;49.400;11.092;2023-08-24T14:49:41;35.80;34.60
3548;DHT22;1788;49.400;11.092;2023-08-24T14:52:08;35.90;34.50
3548;DHT22;1788;49.400;11.092;2023-08-24T14:54:34;35.90;34.40
3548;DHT22;1788;49.400;11.092;2023-08-24T14:57:02;36.20;34.30
3548;DHT22;1788;49.400;11.092;2023-08-24T14:59:28;36.20;34.30
3548;DHT22;1788;49.400;11.092;2023-08-24T15:01:55;36.20;34.10
3548;DHT22;1788;49.400;11.092;2023-08-24T15:04:21;36.20;34.20
3548;DHT22;1788;49.400;11.092;2023-08-24T15:06:48;36.30;34.30
3548;DHT22;1788;49.400;11.092;2023-08-24T15:09:15;36.30;34.10
3548;DHT22;1788;49.400;11.092;2023-08-24T15:11:41;36.30;34.10
3548;DHT22;1788;49.400;11.092;2023-08-24T15:14:08;36.20;34.20
3548;DHT22;1788;49.400;11.092;2023-08-24T15:16:35;36.10;34.40
3548;DHT22;1788;49.400;11.092;2023-08-24T15:19:01;36.10;34.50
3548;DHT22;1788;49.400;11.092;2023-08-24T15:21:28;36.10;34.60
3548;DHT22;1788;49.400;11.092;2023-08-24T15:23:55;36.10;34.50
3548;DHT22;1788;49.400;11.092;2023-08-24T15:26:21;36.00;34.50
3548;DHT22;1788;49.400;11.092;2023-08-24T15:31:14;35.80;34.70
3548;DHT22;1788;49.400;11.092;2023-08-24T15:33:41;35.60;34.70
3548;DHT22;1788;49.400;11.092;2023-08-24T15:36:08;35.40;34.90
3548;DHT22;1788;49.400;11.092;2023-08-24T15:38:35;35.00;35.30
3548;DHT22;1788;49.400;11.092;2023-08-24T15:41:02;35.00;35.30
3548;DHT22;1788;49.400;11.092;2023-08-24T15:43:28;34.90;35.60
3548;DHT22;1788;49.400;11.092;2023-08-24T15:45:55;34.70;35.80
3548;DHT22;1788;49.400;11.092;2023-08-24T15:48:22;34.50;36.10
3548;DHT22;1788;49.400;11.092;2023-08-24T15:50:49;34.40;36.00
3548;DHT22;1788;49.400;11.092;2023-08-24T15:53:16;34.40;36.40
3548;DHT22;1788;49.400;11.092;2023-08-24T15:55:44;34.20;36.60
3548;DHT22;1788;49.400;11.092;2023-08-24T15:58:10;34.20;36.60
3548;DHT22;1788;49.400;11.092;2023-08-24T16:00:37;34.10;36.70
3548;DHT22;1788;49.400;11.092;2023-08-24T16:03:04;33.80;37.00
3548;DHT22;1788;49.400;11.092;2023-08-24T16:05:32;33.80;37.10
3548;DHT22;1788;49.400;11.092;2023-08-24T16:07:58;33.60;37.80
3548;DHT22;1788;49.400;11.092;2023-08-24T16:10:25;33.60;37.40
3548;DHT22;1788;49.400;11.092;2023-08-24T16:12:51;33.50;37.50
3548;DHT22;1788;49.400;11.092;2023-08-24T16:15:18;33.30;37.50
3548;DHT22;1788;49.400;11.092;2023-08-24T16:17:45;33.20;37.70
3548;DHT22;1788;49.400;11.092;2023-08-24T16:20:11;33.10;37.90
3548;DHT22;1788;49.400;11.092;2023-08-24T16:22:38;33.00;38.10
3548;DHT22;1788;49.400;11.092;2023-08-24T16:25:05;32.90;38.20
3548;DHT22;1788;49.400;11.092;2023-08-24T16:27:31;32.80;39.00